Time;durP1;ratioP1;P1;durP2;ratioP2;P2;SDS_P1;SDS_P2;PMS_P1;PMS_P2;Temp;Humidity;BMP_temperature;BMP_pressure;BME280_temperature;BME280_humidity;BME280_pressure;Samples;Min_cycle;Max_cycle;Signal;HPM_P1;HPM_P2
2023/12/22 04:01:17;;;;;;;0.85;0.30;;;23.00;29.90;;;;;;5681742;22;45131;-88
2023/12/22 04:03:43;;;;;;;0.50;0.20;;;23.00;29.90;;;;;;4999327;28;45123;-87
2023/12/22 04:06:12;;;;;;;0.50;0.30;;;23.00;30.40;;;;;;4987084;28;44723;-82
2023/12/22 04:08:37;;;;;;;1.15;0.40;;;23.00;29.90;;;;;;4988272;28;45387;-80
2023/12/22 04:17:13;;;;;;;0.70;0.30;;;22.90;29.90;;;;;;4958690;28;46364;-39
2023/12/22 04:19:38;;;;;;;1.25;0.30;;;22.90;29.90;;;;;;4944446;28;46175;-41
2023/12/22 04:22:04;;;;;;;0.77;0.37;;;22.90;29.90;;;;;;5008756;28;45351;-39
2023/12/22 04:24:29;;;;;;;0.77;0.27;;;22.90;29.90;;;;;;5025351;28;45302;-44
2023/12/22 04:26:55;;;;;;;0.77;0.30;;;22.90;29.90;;;;;;5018814;28;44997;-42
2023/12/22 04:29:20;;;;;;;0.63;0.30;;;22.90;29.90;;;;;;5022429;28;46566;-44
2023/12/22 04:31:46;;;;;;;1.10;0.20;;;22.90;29.80;;;;;;4980549;28;45466;-42
2023/12/22 04:34:15;;;;;;;0.52;0.28;;;22.90;29.90;;;;;;5009258;28;45599;-44
2023/12/22 04:36:41;;;;;;;0.70;0.30;;;22.90;29.80;;;;;;4978565;28;45288;-44
2023/12/22 04:39:07;;;;;;;0.40;0.20;;;22.90;29.80;;;;;;5007920;28;45615;-44
2023/12/22 04:41:32;;;;;;;0.70;0.30;;;22.90;29.80;;;;;;5012892;28;45168;-44
2023/12/22 04:43:58;;;;;;;1.13;0.30;;;22.90;29.80;;;;;;5024625;28;45387;-42
2023/12/22 04:46:23;;;;;;;0.70;0.20;;;22.90;29.80;;;;;;4990214;28;45582;-45
2023/12/22 04:48:49;;;;;;;0.80;0.30;;;22.90;29.80;;;;;;5021996;28;45912;-43
2023/12/22 04:51:15;;;;;;;1.08;0.30;;;22.90;29.80;;;;;;5015849;28;45291;-42
2023/12/22 04:53:40;;;;;;;0.67;0.30;;;22.80;29.80;;;;;;5014166;28;45471;-44
2023/12/22 04:56:06;;;;;;;0.77;0.25;;;22.90;29.90;;;;;;5006638;28;45587;-42
2023/12/22 04:58:32;;;;;;;0.40;0.20;;;22.80;29.80;;;;;;4988589;28;45313;-43
2023/12/22 05:00:59;;;;;;;0.80;0.30;;;22.80;29.80;;;;;;5001977;28;45264;-44
2023/12/22 05:03:24;;;;;;;0.98;0.30;;;22.80;29.80;;;;;;4984579;28;45284;-42
2023/12/22 05:05:50;;;;;;;0.70;0.25;;;22.80;29.80;;;;;;5000756;28;46587;-44
2023/12/22 05:08:16;;;;;;;1.08;0.40;;;22.80;29.80;;;;;;5021709;28;45186;-43
2023/12/22 05:10:41;;;;;;;0.40;0.20;;;22.80;29.80;;;;;;5016032;28;45521;-43
2023/12/22 05:13:07;;;;;;;0.70;0.20;;;22.80;29.80;;;;;;5027909;28;45235;-42
2023/12/22 05:15:32;;;;;;;0.70;0.30;;;22.80;29.70;;;;;;5008452;28;45358;-41
2023/12/22 05:17:58;;;;;;;0.70;0.30;;;22.80;29.70;;;;;;5021636;28;45709;-43
2023/12/22 05:20:24;;;;;;;1.13;0.40;;;22.70;29.70;;;;;;5014533;28;45164;-43
2023/12/22 05:22:49;;;;;;;0.80;0.27;;;22.80;29.80;;;;;;5004644;28;45268;-41
2023/12/22 05:25:15;;;;;;;4.73;3.33;;;22.80;29.80;;;;;;5020625;28;45519;-42
2023/12/22 05:27:42;;;;;;;4.77;2.83;;;22.70;29.70;;;;;;5009914;28;46562;-44
2023/12/22 05:30:11;;;;;;;6.82;3.22;;;22.70;29.70;;;;;;5012686;28;44940;-44
2023/12/22 05:32:37;;;;;;;4.88;3.17;;;22.70;29.80;;;;;;5002798;28;45321;-41
2023/12/22 05:35:07;;;;;;;4.00;2.70;;;22.70;29.80;;;;;;5022382;28;45073;-46
2023/12/22 05:37:32;;;;;;;3.55;2.42;;;22.70;29.80;;;;;;5020300;28;45622;-43
2023/12/22 05:39:58;;;;;;;3.00;2.10;;;22.70;29.70;;;;;;5011740;28;45489;-43
2023/12/22 05:42:23;;;;;;;2.80;1.90;;;22.70;29.70;;;;;;5013019;28;45351;-41
2023/12/22 05:44:49;;;;;;;3.17;1.73;;;22.70;29.70;;;;;;5007821;28;45618;-39
2023/12/22 05:47:16;;;;;;;2.47;1.50;;;22.70;29.70;;;;;;5004567;28;46286;-38
2023/12/22 05:49:41;;;;;;;2.50;1.60;;;22.70;29.80;;;;;;5013315;28;46162;-38
2023/12/22 05:52:09;;;;;;;2.17;1.20;;;22.70;29.80;;;;;;4998122;28;45578;-39
2023/12/22 05:54:35;;;;;;;3.53;1.30;;;22.70;29.70;;;;;;5024681;28;45176;-39
2023/12/22 05:57:01;;;;;;;1.70;0.93;;;22.60;29.70;;;;;;5015549;28;45462;-38
2023/12/22 05:59:27;;;;;;;2.73;1.03;;;22.70;29.80;;;;;;5017775;28;48485;-38
2023/12/22 06:01:53;;;;;;;1.50;0.83;;;22.70;29.80;;;;;;4958900;28;46045;-38
2023/12/22 06:04:19;;;;;;;1.42;0.88;;;22.70;29.80;;;;;;5027218;28;45540;-39
2023/12/22 06:06:45;;;;;;;1.23;0.67;;;22.70;29.70;;;;;;4996640;28;45742;-38
2023/12/22 06:09:12;;;;;;;1.70;0.80;;;22.70;29.70;;;;;;5007582;28;45295;-37
2023/12/22 06:11:39;;;;;;;2.50;0.65;;;22.70;29.70;;;;;;5022094;28;45984;-37
2023/12/22 06:14:05;;;;;;;1.33;0.60;;;22.70;29.70;;;;;;5023101;28;46424;-39
2023/12/22 06:16:31;;;;;;;0.77;0.45;;;22.70;29.70;;;;;;5004890;28;45485;-38
2023/12/22 06:18:59;;;;;;;1.20;0.60;;;22.70;29.70;;;;;;5024226;28;63685;-38
2023/12/22 06:21:24;;;;;;;1.17;0.60;;;22.70;29.70;;;;;;5013818;28;45280;-38
2023/12/22 06:23:50;;;;;;;1.05;0.50;;;22.70;29.60;;;;;;5008466;28;45641;-40
2023/12/22 06:26:15;;;;;;;1.17;0.40;;;22.70;29.60;;;;;;5014938;28;47181;-38
2023/12/22 06:28:41;;;;;;;0.77;0.47;;;22.70;29.60;;;;;;5016197;28;45772;-38
2023/12/22 06:31:07;;;;;;;0.83;0.37;;;22.70;29.60;;;;;;4999867;28;45662;-38
2023/12/22 06:33:33;;;;;;;0.47;0.30;;;22.80;29.60;;;;;;5023629;28;45265;-39
2023/12/22 06:35:58;;;;;;;0.87;0.30;;;22.80;29.60;;;;;;4996029;28;44966;-39
2023/12/22 06:38:24;;;;;;;1.10;0.50;;;22.80;29.60;;;;;;5008283;28;45215;-38
2023/12/22 06:40:50;;;;;;;1.07;0.43;;;22.80;29.60;;;;;;5002398;28;45206;-38
2023/12/22 06:43:15;;;;;;;0.40;0.20;;;22.80;29.60;;;;;;5021781;28;45234;-38
2023/12/22 06:45:41;;;;;;;0.77;0.30;;;22.80;29.50;;;;;;5005042;28;45255;-38
2023/12/22 06:48:07;;;;;;;1.37;0.40;;;22.90;29.60;;;;;;5023499;28;45431;-38
2023/12/22 06:50:32;;;;;;;0.50;0.20;;;22.90;29.60;;;;;;5011557;28;45350;-38
2023/12/22 06:52:58;;;;;;;0.93;0.20;;;22.90;30.00;;;;;;5000149;28;45442;-38
2023/12/22 06:55:23;;;;;;;0.85;0.20;;;22.90;29.50;;;;;;5000923;28;46568;-43
2023/12/22 06:57:49;;;;;;;0.40;0.20;;;22.90;29.50;;;;;;5026250;28;44685;-42
2023/12/22 07:00:15;;;;;;;0.40;0.28;;;22.90;29.60;;;;;;4980251;28;45684;-43
2023/12/22 07:02:41;;;;;;;0.70;0.28;;;22.90;29.50;;;;;;5017798;28;45185;-41
2023/12/22 07:05:09;;;;;;;0.60;0.20;;;22.90;29.50;;;;;;5015712;28;46391;-43
2023/12/22 07:07:35;;;;;;;0.98;0.20;;;23.00;29.50;;;;;;5005796;28;45399;-41
2023/12/22 07:10:01;;;;;;;0.70;0.20;;;23.00;29.50;;;;;;5025545;28;45540;-43
2023/12/22 07:12:26;;;;;;;0.40;0.20;;;23.00;29.40;;;;;;5014003;28;45616;-42
2023/12/22 07:14:53;;;;;;;0.40;0.20;;;23.10;29.50;;;;;;4993459;28;46983;-46
2023/12/22 07:17:19;;;;;;;0.15;0.15;;;23.00;29.40;;;;;;4976549;28;45274;-43
2023/12/22 07:19:45;;;;;;;0.70;0.40;;;23.10;29.40;;;;;;5028628;28;45417;-43
2023/12/22 07:22:10;;;;;;;0.90;0.30;;;23.10;29.40;;;;;;5012398;28;45590;-42
2023/12/22 07:24:36;;;;;;;1.00;0.40;;;23.10;29.40;;;;;;4995806;28;45873;-43
2023/12/22 07:27:02;;;;;;;0.70;0.30;;;23.10;29.30;;;;;;5006146;28;45727;-43
2023/12/22 07:29:27;;;;;;;0.70;0.33;;;23.10;29.30;;;;;;5021389;28;45094;-41
2023/12/22 07:31:53;;;;;;;0.57;0.30;;;23.20;29.40;;;;;;5006045;28;45974;-42
2023/12/22 07:34:18;;;;;;;0.50;0.30;;;23.20;29.30;;;;;;5004303;28;45808;-42
2023/12/22 07:36:44;;;;;;;1.20;0.40;;;23.20;29.30;;;;;;5012734;28;45081;-42
2023/12/22 07:39:10;;;;;;;1.10;0.43;;;23.20;29.30;;;;;;5022409;28;45154;-42
2023/12/22 07:41:36;;;;;;;0.98;0.40;;;23.30;29.30;;;;;;5004121;28;45707;-42
2023/12/22 07:44:02;;;;;;;0.70;0.40;;;23.30;29.30;;;;;;5017331;28;45599;-45
2023/12/22 07:46:28;;;;;;;1.23;0.50;;;23.30;29.30;;;;;;4991575;28;45442;-42
2023/12/22 07:48:54;;;;;;;1.20;0.55;;;23.30;29.30;;;;;;4982204;28;45426;-44
2023/12/22 07:51:20;;;;;;;1.33;0.50;;;23.30;29.20;;;;;;5016544;28;46381;-45
2023/12/22 07:53:45;;;;;;;0.80;0.50;;;23.40;29.20;;;;;;5009854;28;45655;-41
2023/12/22 07:56:11;;;;;;;1.63;0.50;;;23.40;29.20;;;;;;4998865;28;45329;-40
2023/12/22 07:58:37;;;;;;;1.10;0.50;;;23.40;29.20;;;;;;5027529;28;45800;-44
2023/12/22 08:01:03;;;;;;;1.13;0.40;;;23.40;29.20;;;;;;5002704;28;45537;-43
2023/12/22 08:03:28;;;;;;;0.93;0.47;;;23.50;29.20;;;;;;5009295;28;45671;-42
2023/12/22 08:05:55;;;;;;;1.20;0.40;;;23.50;29.20;;;;;;4994725;28;45541;-41
2023/12/22 08:08:21;;;;;;;0.75;0.43;;;23.50;29.20;;;;;;4989912;28;45155;-39
2023/12/22 08:10:46;;;;;;;1.50;0.50;;;23.50;29.20;;;;;;5016418;28;45756;-38
2023/12/22 08:13:12;;;;;;;1.27;0.50;;;23.60;29.30;;;;;;5015364;28;45211;-38
2023/12/22 08:15:37;;;;;;;1.07;0.50;;;23.60;29.20;;;;;;5003511;28;45233;-38
2023/12/22 08:18:03;;;;;;;1.73;0.70;;;23.60;29.20;;;;;;5019696;28;45860;-38
2023/12/22 08:20:29;;;;;;;0.82;0.35;;;23.60;29.20;;;;;;5002275;28;45464;-38
2023/12/22 08:22:54;;;;;;;0.80;0.40;;;23.70;29.20;;;;;;5023919;28;45366;-38
2023/12/22 08:25:20;;;;;;;1.23;0.50;;;23.70;29.20;;;;;;5014569;28;45404;-37
2023/12/22 08:27:45;;;;;;;1.30;0.60;;;23.70;29.10;;;;;;5006992;28;45335;-38
2023/12/22 08:30:11;;;;;;;1.70;0.60;;;23.70;29.40;;;;;;4996462;28;46171;-39
2023/12/22 08:32:37;;;;;;;1.10;0.47;;;23.80;29.10;;;;;;5017572;28;45529;-39
2023/12/22 08:35:06;;;;;;;2.25;0.50;;;23.80;29.10;;;;;;5019297;28;45216;-38
2023/12/22 08:37:32;;;;;;;0.77;0.40;;;23.80;29.10;;;;;;4988690;28;45426;-38
2023/12/22 08:39:57;;;;;;;1.40;0.50;;;23.90;29.10;;;;;;5030528;28;47399;-38
2023/12/22 08:42:24;;;;;;;1.50;0.50;;;23.90;29.10;;;;;;4996853;28;46132;-38
2023/12/22 08:44:50;;;;;;;1.58;0.65;;;23.90;29.00;;;;;;5028124;28;45411;-39
2023/12/22 08:47:15;;;;;;;1.33;0.57;;;23.90;29.00;;;;;;5004669;28;45020;-38
2023/12/22 08:49:41;;;;;;;1.00;0.50;;;24.00;29.00;;;;;;5024672;28;45452;-38
2023/12/22 08:52:07;;;;;;;1.08;0.60;;;24.00;29.00;;;;;;5010160;28;45467;-38
2023/12/22 08:54:34;;;;;;;1.67;0.50;;;24.10;29.00;;;;;;5025570;28;45125;-38
2023/12/22 08:57:00;;;;;;;1.10;0.60;;;24.10;29.00;;;;;;5010849;28;45583;-38
2023/12/22 08:59:26;;;;;;;1.38;0.50;;;24.10;28.90;;;;;;5025015;28;45455;-38
2023/12/22 09:01:51;;;;;;;0.90;0.43;;;24.10;28.90;;;;;;5005074;28;45336;-39
2023/12/22 09:04:17;;;;;;;1.60;0.80;;;24.10;28.90;;;;;;5023159;28;45405;-38
2023/12/22 09:06:42;;;;;;;1.30;0.60;;;24.20;28.90;;;;;;5015827;28;45977;-38
2023/12/22 09:09:09;;;;;;;1.77;0.60;;;24.20;28.90;;;;;;5024274;28;44915;-37
2023/12/22 09:11:34;;;;;;;0.60;0.40;;;24.20;28.80;;;;;;5000947;28;45725;-39
2023/12/22 09:14:00;;;;;;;0.70;0.30;;;24.30;28.90;;;;;;5012698;28;45313;-38
2023/12/22 09:16:26;;;;;;;0.88;0.40;;;24.30;29.40;;;;;;4988299;28;45558;-38
2023/12/22 09:18:52;;;;;;;0.80;0.50;;;24.30;28.80;;;;;;5025676;28;45526;-39
2023/12/22 09:21:17;;;;;;;0.97;0.50;;;24.30;29.30;;;;;;5009086;28;45433;-39
2023/12/22 09:23:46;;;;;;;0.97;0.50;;;24.30;28.80;;;;;;5022450;28;45370;-39
2023/12/22 09:26:13;;;;;;;1.67;0.60;;;24.30;28.80;;;;;;5010405;28;46535;-38
2023/12/22 09:28:39;;;;;;;1.95;0.60;;;24.40;28.80;;;;;;5006082;28;45455;-39
2023/12/22 09:31:06;;;;;;;1.40;0.60;;;24.40;28.80;;;;;;5007649;28;45700;-41
2023/12/22 09:33:32;;;;;;;1.83;0.60;;;24.40;28.80;;;;;;5008824;28;45602;-39
2023/12/22 09:35:57;;;;;;;0.83;0.50;;;24.40;28.80;;;;;;5015925;28;45692;-38
2023/12/22 09:38:23;;;;;;;1.63;0.50;;;24.40;28.70;;;;;;5024986;28;45786;-39
2023/12/22 09:40:50;;;;;;;1.30;0.60;;;24.40;28.70;;;;;;5016004;28;47156;-40
2023/12/22 09:43:15;;;;;;;1.80;0.70;;;24.40;28.70;;;;;;5024431;28;45402;-39
2023/12/22 09:45:41;;;;;;;1.38;0.60;;;24.40;28.70;;;;;;4993829;28;45579;-38
2023/12/22 09:48:07;;;;;;;1.60;0.70;;;24.40;28.70;;;;;;4999115;28;46171;-39
2023/12/22 09:50:32;;;;;;;0.90;0.57;;;24.40;28.70;;;;;;5013882;28;45550;-39
2023/12/22 09:52:58;;;;;;;1.30;0.43;;;24.40;28.70;;;;;;4996820;28;46129;-39
2023/12/22 09:55:24;;;;;;;1.50;0.70;;;24.40;28.70;;;;;;4993161;28;45730;-39
2023/12/22 09:57:50;;;;;;;1.08;0.50;;;24.50;28.70;;;;;;4993001;28;45248;-38
2023/12/22 10:00:16;;;;;;;0.93;0.60;;;24.50;28.70;;;;;;5009830;28;45413;-38
2023/12/22 10:02:42;;;;;;;1.60;0.50;;;24.50;28.70;;;;;;5000939;28;45480;-41
2023/12/22 10:05:10;;;;;;;1.40;0.60;;;24.50;28.70;;;;;;4998658;28;45248;-38
2023/12/22 10:07:35;;;;;;;1.45;0.60;;;24.50;28.70;;;;;;5020645;28;45517;-39
2023/12/22 10:10:02;;;;;;;1.88;0.88;;;24.50;28.70;;;;;;5025910;28;45880;-39
2023/12/22 10:12:30;;;;;;;1.40;0.50;;;24.50;28.70;;;;;;4952372;28;46353;-38
2023/12/22 10:14:56;;;;;;;1.17;0.52;;;24.50;28.70;;;;;;5011765;28;45592;-39
2023/12/22 10:17:21;;;;;;;1.20;0.50;;;24.60;28.70;;;;;;4997400;28;47547;-38
2023/12/22 10:19:47;;;;;;;1.30;0.50;;;24.60;28.70;;;;;;5013694;28;46123;-39
2023/12/22 10:22:13;;;;;;;1.47;0.50;;;24.60;28.70;;;;;;5008452;28;45432;-38
2023/12/22 10:24:50;;;;;;;2.10;0.50;;;24.60;29.20;;;;;;5025388;28;45242;-39
2023/12/22 10:27:22;;;;;;;1.15;0.50;;;24.60;28.70;;;;;;5013539;28;45459;-39
2023/12/22 10:29:53;;;;;;;1.50;0.50;;;24.60;28.70;;;;;;5027103;28;46103;-38
2023/12/22 10:32:19;;;;;;;2.45;0.50;;;24.60;28.70;;;;;;5002704;28;45767;-38
2023/12/22 10:34:45;;;;;;;1.10;0.50;;;24.60;28.70;;;;;;5008560;28;45283;-38
2023/12/22 10:37:12;;;;;;;1.27;0.60;;;24.60;28.70;;;;;;5012616;28;45785;-39
2023/12/22 10:39:38;;;;;;;2.05;0.88;;;24.60;28.70;;;;;;5022635;28;45163;-38
2023/12/22 10:42:04;;;;;;;1.13;0.40;;;24.60;28.60;;;;;;5018773;28;45136;-38
2023/12/22 10:44:29;;;;;;;1.33;0.60;;;24.60;28.60;;;;;;4983727;28;45249;-39
2023/12/22 10:46:58;;;;;;;0.90;0.40;;;24.60;28.70;;;;;;4990879;28;45411;-38
2023/12/22 10:49:24;;;;;;;1.80;0.70;;;24.60;28.60;;;;;;5015357;28;45857;-38
2023/12/22 10:51:50;;;;;;;1.17;0.50;;;24.60;28.60;;;;;;5013013;28;45340;-39
2023/12/22 10:54:16;;;;;;;1.40;0.52;;;24.60;28.60;;;;;;5019350;28;45860;-39
2023/12/22 10:56:41;;;;;;;1.77;0.50;;;24.60;28.60;;;;;;5015147;28;45259;-38
2023/12/22 10:59:09;;;;;;;1.50;0.40;;;24.60;28.60;;;;;;5022497;28;46030;-38
2023/12/22 11:01:38;;;;;;;1.52;0.70;;;24.60;28.60;;;;;;5003061;28;45352;-39
2023/12/22 11:04:06;;;;;;;0.73;0.40;;;24.60;28.60;;;;;;5024027;28;46397;-37
2023/12/22 11:06:34;;;;;;;1.15;0.50;;;24.60;28.60;;;;;;4996610;28;45862;-39
2023/12/22 11:08:59;;;;;;;1.10;0.40;;;24.60;28.60;;;;;;5006615;28;45682;-39
2023/12/22 11:11:29;;;;;;;0.60;0.40;;;24.60;28.60;;;;;;4999243;28;45444;-38
2023/12/22 11:13:56;;;;;;;1.17;0.57;;;24.60;28.60;;;;;;5023308;28;45151;-39
2023/12/22 11:16:22;;;;;;;1.38;0.40;;;24.60;28.60;;;;;;5000542;28;45677;-38
2023/12/22 11:18:47;;;;;;;1.10;0.40;;;24.60;28.60;;;;;;5018105;28;45400;-39
2023/12/22 11:21:14;;;;;;;0.95;0.50;;;24.60;28.60;;;;;;4993338;28;45497;-38
2023/12/22 11:23:39;;;;;;;0.73;0.50;;;24.60;28.60;;;;;;5008738;28;45213;-38
2023/12/22 11:26:05;;;;;;;1.30;0.50;;;24.60;28.60;;;;;;4999719;28;45646;-39
2023/12/22 11:28:31;;;;;;;1.37;0.50;;;24.50;28.50;;;;;;4984250;28;46227;-39
2023/12/22 11:30:56;;;;;;;1.17;0.40;;;24.60;28.60;;;;;;4988029;28;45245;-38
2023/12/22 11:33:22;;;;;;;0.82;0.50;;;24.60;28.60;;;;;;5022918;28;45336;-37
2023/12/22 11:35:48;;;;;;;0.93;0.50;;;24.50;28.60;;;;;;5003265;28;45436;-38
2023/12/22 11:38:13;;;;;;;1.90;0.47;;;24.50;28.60;;;;;;5006509;28;45503;-38
2023/12/22 11:40:39;;;;;;;0.70;0.50;;;24.50;28.60;;;;;;5019937;28;45833;-39
2023/12/22 11:43:05;;;;;;;1.15;0.45;;;24.50;28.60;;;;;;5023965;28;45501;-39
2023/12/22 11:45:31;;;;;;;1.30;0.47;;;24.50;28.60;;;;;;4989312;28;45204;-38
2023/12/22 11:48:05;;;;;;;0.95;0.40;;;24.50;28.60;;;;;;5017516;28;45882;-38
2023/12/22 11:50:31;;;;;;;1.13;0.40;;;24.50;28.70;;;;;;4992159;28;45659;-38
2023/12/22 11:52:57;;;;;;;0.53;0.40;;;24.50;28.60;;;;;;5025536;28;45249;-38
2023/12/22 11:56:00;;;;;;;0.88;0.50;;;24.50;28.60;;;;;;4994260;28;45514;-39
2023/12/22 11:58:52;;;;;;;1.23;0.40;;;24.50;28.60;;;;;;5019391;28;45897;-39
2023/12/22 12:01:19;;;;;;;1.00;0.45;;;24.50;28.70;;;;;;4999274;28;45527;-39
2023/12/22 12:03:51;;;;;;;0.83;0.50;;;24.50;28.70;;;;;;5009377;28;45262;-39
2023/12/22 12:06:26;;;;;;;0.82;0.47;;;24.50;28.70;;;;;;4998676;28;46122;-39
2023/12/22 12:08:53;;;;;;;1.13;0.50;;;24.50;28.70;;;;;;5020725;28;46045;-39
2023/12/22 12:11:19;;;;;;;0.85;0.50;;;24.50;28.70;;;;;;4992056;28;45306;-39
2023/12/22 12:13:45;;;;;;;1.70;0.60;;;24.50;28.70;;;;;;5031178;28;45242;-39
2023/12/22 12:16:15;;;;;;;1.08;0.50;;;24.50;28.70;;;;;;5007563;28;45752;-39
2023/12/22 12:18:40;;;;;;;0.90;0.50;;;24.50;28.80;;;;;;5021873;28;45302;-38
2023/12/22 12:21:07;;;;;;;1.10;0.52;;;24.50;28.80;;;;;;5014337;28;45669;-39
2023/12/22 12:23:33;;;;;;;1.58;0.68;;;24.40;28.70;;;;;;5007059;28;46500;-37
2023/12/22 12:25:58;;;;;;;1.08;0.70;;;24.50;28.80;;;;;;5018183;28;45364;-38
2023/12/22 12:28:31;;;;;;;1.10;0.55;;;24.40;28.80;;;;;;5021389;28;45356;-39
2023/12/22 12:31:03;;;;;;;1.67;0.60;;;24.50;28.80;;;;;;5002633;28;45549;-38
2023/12/22 12:33:28;;;;;;;0.70;0.60;;;24.40;28.80;;;;;;5020699;28;45212;-38
2023/12/22 12:35:57;;;;;;;2.27;0.90;;;24.40;29.30;;;;;;4990817;28;45163;-39
2023/12/22 12:38:32;;;;;;;1.98;0.80;;;24.40;28.80;;;;;;4998158;28;46565;-39
2023/12/22 12:40:58;;;;;;;2.08;0.90;;;24.40;28.80;;;;;;5015686;28;45308;-38
2023/12/22 12:43:23;;;;;;;1.63;0.83;;;24.40;28.90;;;;;;5007230;28;45921;-39
2023/12/22 12:45:49;;;;;;;1.57;0.90;;;24.40;28.90;;;;;;5014320;28;45862;-39
2023/12/22 12:48:16;;;;;;;1.10;0.70;;;24.40;28.90;;;;;;5010048;28;45382;-38
2023/12/22 12:50:42;;;;;;;1.27;0.70;;;24.40;28.90;;;;;;5002805;28;45728;-39
2023/12/22 12:53:07;;;;;;;2.07;0.90;;;24.40;29.40;;;;;;5024455;28;45166;-39
2023/12/22 12:55:33;;;;;;;2.20;0.90;;;24.40;28.90;;;;;;5018432;28;45407;-39
2023/12/22 12:57:58;;;;;;;2.38;1.00;;;24.40;29.00;;;;;;5029423;28;45762;-39
2023/12/22 13:00:27;;;;;;;1.70;0.90;;;24.40;29.00;;;;;;5009956;28;45704;-38
2023/12/22 13:02:55;;;;;;;2.38;1.00;;;24.40;29.00;;;;;;5024904;28;46438;-40
2023/12/22 13:05:24;;;;;;;3.20;1.20;;;24.30;29.00;;;;;;5004989;28;45520;-39
2023/12/22 13:07:50;;;;;;;2.53;1.20;;;24.30;29.00;;;;;;5032944;28;46122;-39
2023/12/22 13:10:22;;;;;;;2.13;0.93;;;24.30;29.00;;;;;;5022535;28;45250;-40
2023/12/22 13:12:49;;;;;;;2.15;1.10;;;24.30;29.10;;;;;;5020345;28;45318;-39
2023/12/22 13:15:15;;;;;;;2.20;1.00;;;24.30;29.10;;;;;;5000149;28;45329;-40
2023/12/22 13:17:40;;;;;;;2.80;1.30;;;24.30;29.10;;;;;;4978796;28;45298;-39
2023/12/22 13:20:07;;;;;;;2.78;1.17;;;24.30;29.10;;;;;;5011661;28;45090;-38
2023/12/22 13:22:32;;;;;;;3.22;1.17;;;24.30;29.10;;;;;;5010087;28;45339;-40
2023/12/22 13:24:58;;;;;;;2.80;1.30;;;24.30;29.20;;;;;;5024077;28;45453;-40
2023/12/22 13:27:23;;;;;;;3.07;1.40;;;24.30;29.20;;;;;;5007199;28;45945;-40
2023/12/22 13:29:52;;;;;;;2.67;1.20;;;24.30;29.20;;;;;;5032205;28;45263;-38
2023/12/22 13:32:18;;;;;;;2.90;1.25;;;24.20;29.20;;;;;;5009207;28;45813;-38
2023/12/22 13:34:50;;;;;;;3.10;1.33;;;24.20;29.20;;;;;;5028036;28;45223;-42
2023/12/22 13:37:16;;;;;;;3.55;1.38;;;24.20;29.20;;;;;;5021232;28;46369;-43
2023/12/22 13:39:41;;;;;;;3.20;1.20;;;24.20;29.20;;;;;;5025369;28;45320;-43
2023/12/22 13:42:21;;;;;;;2.97;1.20;;;24.20;29.20;;;;;;5022155;28;45817;-45
2023/12/22 13:44:48;;;;;;;2.95;1.13;;;24.20;29.30;;;;;;5021530;28;45179;-43
2023/12/22 13:47:17;;;;;;;4.35;1.50;;;24.20;29.40;;;;;;5011704;28;46049;-41
2023/12/22 13:49:43;;;;;;;2.60;1.35;;;24.10;29.30;;;;;;5026502;28;44963;-42
2023/12/22 13:52:24;;;;;;;3.93;1.43;;;24.20;29.40;;;;;;4998677;28;45378;-45
2023/12/22 13:54:50;;;;;;;3.70;1.50;;;24.10;29.40;;;;;;5020240;28;45539;-43
2023/12/22 13:57:21;;;;;;;3.03;1.30;;;24.10;29.40;;;;;;5018839;28;45891;-43
2023/12/22 13:59:47;;;;;;;3.33;1.42;;;24.10;29.40;;;;;;5013485;28;44988;-42
2023/12/22 14:02:12;;;;;;;2.57;1.30;;;24.10;29.40;;;;;;5007896;28;45367;-44
2023/12/22 14:04:38;;;;;;;3.37;1.50;;;24.10;29.50;;;;;;5030333;28;45446;-44
2023/12/22 14:07:03;;;;;;;3.67;1.40;;;24.10;29.50;;;;;;5020914;28;45460;-42
2023/12/22 14:09:32;;;;;;;3.27;1.30;;;24.10;29.50;;;;;;5023063;28;45270;-42
2023/12/22 14:11:58;;;;;;;2.10;1.20;;;24.10;29.50;;;;;;5021169;28;45211;-44
2023/12/22 14:14:23;;;;;;;3.92;1.52;;;24.10;29.50;;;;;;5023404;28;45686;-41
2023/12/22 14:16:49;;;;;;;2.70;1.20;;;24.10;29.50;;;;;;5010079;28;45189;-45
2023/12/22 14:19:14;;;;;;;2.50;1.03;;;24.10;29.50;;;;;;5030491;28;45467;-42
2023/12/22 14:21:40;;;;;;;2.27;1.20;;;24.10;29.50;;;;;;5018220;28;46293;-44
2023/12/22 14:24:06;;;;;;;2.87;1.13;;;24.10;29.50;;;;;;5009936;28;45397;-43
2023/12/22 14:26:31;;;;;;;2.23;1.10;;;24.10;29.50;;;;;;5012782;28;45755;-45
2023/12/22 14:28:57;;;;;;;2.37;1.00;;;24.10;29.50;;;;;;5026583;28;45712;-43
2023/12/22 14:31:22;;;;;;;2.33;1.30;;;24.10;29.50;;;;;;5007998;28;45694;-42
2023/12/22 14:33:49;;;;;;;2.57;1.00;;;24.10;29.50;;;;;;5022127;28;45945;-47
2023/12/22 14:36:14;;;;;;;2.90;1.48;;;24.10;29.50;;;;;;4991462;28;45519;-43
2023/12/22 14:38:40;;;;;;;2.30;1.07;;;24.10;29.50;;;;;;5026026;28;45374;-42
2023/12/22 14:41:06;;;;;;;1.95;1.00;;;24.10;29.50;;;;;;5020456;28;45283;-42
2023/12/22 14:43:32;;;;;;;2.75;1.27;;;24.10;29.50;;;;;;5022390;28;45869;-44
2023/12/22 14:45:57;;;;;;;2.10;0.97;;;24.10;29.60;;;;;;5009158;28;45374;-42
2023/12/22 14:48:23;;;;;;;1.97;1.20;;;24.10;29.60;;;;;;5011891;28;45562;-42
2023/12/22 14:50:49;;;;;;;1.43;0.77;;;24.10;29.60;;;;;;5014705;28;45487;-42
2023/12/22 14:53:15;;;;;;;2.15;1.00;;;24.10;29.60;;;;;;5026051;28;45735;-41
2023/12/22 14:55:40;;;;;;;2.27;0.90;;;24.10;29.60;;;;;;5015499;28;45047;-42
2023/12/22 14:58:07;;;;;;;1.50;0.80;;;24.10;29.60;;;;;;5027607;28;45557;-45
2023/12/22 15:00:33;;;;;;;1.77;0.70;;;24.10;29.60;;;;;;5008940;28;45261;-42
2023/12/22 15:02:58;;;;;;;1.77;0.70;;;24.10;29.60;;;;;;5009890;28;45829;-44
2023/12/22 15:05:29;;;;;;;1.73;0.90;;;24.10;29.70;;;;;;5018065;28;45986;-43
2023/12/22 15:07:55;;;;;;;1.63;0.80;;;24.10;29.70;;;;;;5027388;28;45180;-42
2023/12/22 15:10:21;;;;;;;2.58;1.00;;;24.10;29.70;;;;;;5020167;28;45315;-44
2023/12/22 15:12:47;;;;;;;1.63;0.77;;;24.00;29.70;;;;;;5028606;28;44957;-42
2023/12/22 15:15:13;;;;;;;1.23;0.57;;;24.10;29.70;;;;;;4999806;28;45541;-44
2023/12/22 15:17:39;;;;;;;1.70;0.80;;;24.00;29.70;;;;;;5020430;28;46213;-43
2023/12/22 15:20:06;;;;;;;1.10;0.60;;;24.10;29.80;;;;;;5007901;28;44795;-45
2023/12/22 15:22:32;;;;;;;1.08;0.70;;;24.10;29.70;;;;;;5021947;28;46592;-41
2023/12/22 15:24:57;;;;;;;1.90;0.70;;;24.10;29.80;;;;;;5024863;28;46335;-42
2023/12/22 15:27:24;;;;;;;1.15;0.60;;;24.10;29.80;;;;;;5017248;28;46212;-42
2023/12/22 15:29:49;;;;;;;1.40;0.50;;;24.10;29.80;;;;;;5013659;28;45400;-44
2023/12/22 15:32:15;;;;;;;0.70;0.57;;;24.00;29.80;;;;;;4990827;28;45447;-42
2023/12/22 15:34:43;;;;;;;1.00;0.50;;;24.00;29.80;;;;;;5018411;28;46077;-43
2023/12/22 15:37:09;;;;;;;0.93;0.50;;;24.00;29.80;;;;;;5014438;28;45290;-44
2023/12/22 15:39:35;;;;;;;0.63;0.50;;;24.00;29.80;;;;;;5022595;28;45155;-46
2023/12/22 15:42:01;;;;;;;1.08;0.47;;;24.00;29.80;;;;;;5016682;28;46274;-42
2023/12/22 15:44:29;;;;;;;1.80;0.50;;;24.00;29.80;;;;;;5019618;28;46022;-43
2023/12/22 15:46:54;;;;;;;1.00;0.50;;;24.00;30.30;;;;;;5002889;28;45902;-44
2023/12/22 15:49:20;;;;;;;0.70;0.40;;;24.00;29.80;;;;;;5012860;28;44799;-42
2023/12/22 15:51:46;;;;;;;0.68;0.40;;;24.00;29.90;;;;;;5009733;28;45299;-41
2023/12/22 15:54:11;;;;;;;0.90;0.40;;;24.00;29.90;;;;;;5023948;28;45302;-44
2023/12/22 15:56:37;;;;;;;0.85;0.32;;;24.00;29.90;;;;;;5009508;28;45069;-43
2023/12/22 15:59:03;;;;;;;0.60;0.40;;;24.00;29.90;;;;;;5024526;28;44969;-44
2023/12/22 16:01:28;;;;;;;1.20;0.50;;;23.90;29.90;;;;;;5005315;28;47195;-45
2023/12/22 16:03:54;;;;;;;1.00;0.50;;;23.90;29.90;;;;;;4997929;28;46776;-42
2023/12/22 16:06:19;;;;;;;0.68;0.40;;;24.00;29.90;;;;;;4993110;28;45745;-44
2023/12/22 16:08:45;;;;;;;0.52;0.30;;;24.00;30.00;;;;;;5025399;28;45461;-42
2023/12/22 16:11:10;;;;;;;0.77;0.40;;;23.90;30.00;;;;;;5017560;28;47093;-41
2023/12/22 16:13:38;;;;;;;0.90;0.50;;;23.90;30.00;;;;;;5024073;28;45172;-43
2023/12/22 16:16:04;;;;;;;0.80;0.50;;;23.90;30.00;;;;;;4983891;28;45285;-44
2023/12/22 16:18:29;;;;;;;0.57;0.40;;;23.90;30.00;;;;;;4986498;28;45365;-41
2023/12/22 16:20:55;;;;;;;0.65;0.32;;;23.90;30.00;;;;;;5001401;28;44765;-41
2023/12/22 16:23:21;;;;;;;1.02;0.40;;;23.90;30.00;;;;;;5017512;28;45062;-44
2023/12/22 16:25:51;;;;;;;1.25;0.55;;;23.90;30.00;;;;;;4998028;28;45374;-41
2023/12/22 16:28:19;;;;;;;0.80;0.50;;;23.80;30.00;;;;;;5009902;28;44887;-42
2023/12/22 16:30:48;;;;;;;1.03;0.50;;;23.80;30.00;;;;;;4991475;28;45328;-44
2023/12/22 16:33:14;;;;;;;1.17;0.60;;;23.80;30.00;;;;;;5015495;28;45594;-44
2023/12/22 16:35:41;;;;;;;1.23;0.43;;;23.80;30.00;;;;;;4980058;28;47119;-47
2023/12/22 16:38:06;;;;;;;5.40;0.40;;;23.80;30.10;;;;;;5010803;28;44671;-44
2023/12/22 16:40:32;;;;;;;0.75;0.45;;;23.80;30.00;;;;;;5009259;28;44802;-41
2023/12/22 16:42:57;;;;;;;1.23;0.43;;;23.80;30.10;;;;;;4999610;28;45313;-43
2023/12/22 16:45:26;;;;;;;0.97;0.50;;;23.80;30.00;;;;;;5003126;28;45322;-44
2023/12/22 16:47:52;;;;;;;0.60;0.40;;;23.80;30.00;;;;;;4989111;28;45523;-45
2023/12/22 16:50:17;;;;;;;0.63;0.40;;;23.80;30.10;;;;;;5006381;28;45472;-42